Time;durP1;ratioP1;P1;durP2;ratioP2;P2;SDS_P1;SDS_P2;PMS_P1;PMS_P2;Temp;Humidity;BMP_temperature;BMP_pressure;BME280_temperature;BME280_humidity;BME280_pressure;Samples;Min_cycle;Max_cycle;Signal;HPM_P1;HPM_P2
2021/12/15 00:01:39;;;;;;;31.63;13.90;;;7.90;99.90;;;;;;4911785;29;20697;-75
2021/12/15 00:04:07;;;;;;;27.87;13.53;;;8.00;99.90;;;;;;4924142;29;20609;-72
2021/12/15 00:06:34;;;;;;;33.23;14.57;;;7.90;99.90;;;;;;4921279;29;20198;-72
2021/12/15 00:09:05;;;;;;;28.37;14.00;;;7.90;99.90;;;;;;4920861;29;20304;-72
2021/12/15 00:11:36;;;;;;;28.03;13.37;;;7.80;99.90;;;;;;4927212;29;20705;-72
2021/12/15 00:14:07;;;;;;;29.70;13.63;;;7.80;99.90;;;;;;4932768;29;20232;-72
2021/12/15 00:16:34;;;;;;;27.93;13.23;;;7.70;99.90;;;;;;4926150;29;20652;-73
2021/12/15 00:19:01;;;;;;;31.53;14.30;;;7.60;99.90;;;;;;4913649;29;20289;-75
2021/12/15 00:21:28;;;;;;;29.00;14.07;;;7.70;99.90;;;;;;4928799;29;20227;-73
2021/12/15 00:23:56;;;;;;;30.30;13.50;;;7.60;99.90;;;;;;4926332;29;20226;-72
2021/12/15 00:26:23;;;;;;;28.20;13.57;;;7.50;99.90;;;;;;4929486;29;20250;-72
2021/12/15 00:28:50;;;;;;;28.50;13.37;;;7.30;99.90;;;;;;4932494;29;20199;-72
2021/12/15 00:31:19;;;;;;;29.87;14.20;;;7.40;99.90;;;;;;4912660;29;20326;-72
2021/12/15 00:33:47;;;;;;;26.07;13.27;;;7.30;99.90;;;;;;4929254;29;20211;-72
2021/12/15 00:36:14;;;;;;;23.70;12.63;;;7.40;99.90;;;;;;4913409;29;20207;-73
2021/12/15 00:38:41;;;;;;;24.53;12.40;;;7.40;99.90;;;;;;4913759;29;20202;-72
2021/12/15 00:41:08;;;;;;;27.13;13.27;;;7.40;99.90;;;;;;4931912;29;20623;-74
2021/12/15 00:43:36;;;;;;;29.23;13.87;;;7.20;99.90;;;;;;4923584;29;20215;-72
2021/12/15 00:46:03;;;;;;;25.57;13.00;;;7.10;99.90;;;;;;4928232;29;20192;-72
2021/12/15 00:48:30;;;;;;;25.53;12.60;;;7.10;99.90;;;;;;4930542;29;20249;-72
2021/12/15 00:50:57;;;;;;;24.83;12.13;;;7.20;99.90;;;;;;4931782;29;20228;-72
2021/12/15 00:53:24;;;;;;;23.53;12.30;;;7.40;99.90;;;;;;4915597;29;20253;-76
2021/12/15 00:55:51;;;;;;;23.50;12.40;;;7.40;99.90;;;;;;4930143;29;20259;-72
2021/12/15 00:58:17;;;;;;;23.40;12.30;;;7.40;99.90;;;;;;4908611;29;20304;-72
2021/12/15 01:00:57;;;;;;;23.70;12.57;;;7.40;99.90;;;;;;4930912;29;20394;-75
2021/12/15 01:03:25;;;;;;;25.53;12.67;;;7.50;99.90;;;;;;4926841;29;20320;-73
2021/12/15 01:06:02;;;;;;;23.47;11.43;;;7.60;99.90;;;;;;4930085;29;20253;-72
2021/12/15 01:08:31;;;;;;;26.37;11.33;;;7.60;99.90;;;;;;4926950;29;20709;-76
2021/12/15 01:19:47;;;;;;;21.13;11.47;;;7.50;99.90;;;;;;4932153;29;20200;-72
2021/12/15 01:22:19;;;;;;;17.93;10.40;;;7.50;99.90;;;;;;4925499;29;20885;-72
2021/12/15 01:24:46;;;;;;;20.10;10.57;;;7.40;99.90;;;;;;4929819;29;20711;-72
2021/12/15 01:27:13;;;;;;;19.27;11.00;;;7.40;99.90;;;;;;4932753;29;21935;-72
2021/12/15 01:29:40;;;;;;;20.37;10.90;;;7.40;99.90;;;;;;4928703;29;20201;-75
2021/12/15 01:32:07;;;;;;;19.97;10.17;;;7.40;99.90;;;;;;4928347;29;20240;-72
2021/12/15 01:34:34;;;;;;;17.60;10.43;;;7.40;99.90;;;;;;4932160;29;20730;-73
2021/12/15 01:37:01;;;;;;;21.10;10.70;;;7.40;99.90;;;;;;4928522;29;20198;-73
2021/12/15 01:39:28;;;;;;;21.17;10.90;;;7.50;99.90;;;;;;4929658;29;20642;-73
2021/12/15 01:41:56;;;;;;;21.50;10.67;;;7.50;99.90;;;;;;4930956;29;20353;-74
2021/12/15 01:46:57;;;;;;;22.73;11.40;;;7.60;99.90;;;;;;4925304;29;20684;-72
2021/12/15 01:49:45;;;;;;;22.73;11.80;;;7.70;99.90;;;;;;4927399;29;20259;-75
2021/12/15 01:52:19;;;;;;;20.67;11.37;;;7.80;99.90;;;;;;4920117;29;20217;-75
2021/12/15 01:54:59;;;;;;;22.80;11.43;;;7.80;99.90;;;;;;4928174;29;20714;-76
2021/12/15 01:57:29;;;;;;;19.47;10.03;;;7.60;99.90;;;;;;4907350;29;20295;-75
2021/12/15 01:59:57;;;;;;;20.07;10.70;;;7.50;99.90;;;;;;4914452;29;20672;-76
2021/12/15 02:02:24;;;;;;;20.30;10.33;;;7.50;99.90;;;;;;4925384;29;20248;-72
2021/12/15 02:04:53;;;;;;;20.93;10.67;;;7.50;99.90;;;;;;4929071;29;20216;-72
2021/12/15 02:07:22;;;;;;;17.83;10.43;;;7.50;99.90;;;;;;4922548;29;20206;-72
2021/12/15 02:12:26;;;;;;;18.63;9.67;;;7.60;99.90;;;;;;4926897;29;20699;-74
2021/12/15 02:14:53;;;;;;;18.63;10.33;;;7.60;99.90;;;;;;4922806;29;20829;-74
2021/12/15 02:17:21;;;;;;;18.20;10.87;;;7.70;99.90;;;;;;4921991;29;20279;-72
2021/12/15 02:19:48;;;;;;;18.93;10.67;;;7.80;99.90;;;;;;4924779;29;20197;-75
2021/12/15 02:22:15;;;;;;;20.53;10.27;;;7.70;99.90;;;;;;4930014;29;20217;-73
2021/12/15 02:24:44;;;;;;;20.43;10.80;;;7.70;99.90;;;;;;4914993;29;20667;-73
2021/12/15 02:27:13;;;;;;;22.07;10.87;;;7.70;99.90;;;;;;4931227;29;20258;-73
2021/12/15 02:29:43;;;;;;;20.93;11.07;;;7.70;99.90;;;;;;4929939;29;20289;-74
2021/12/15 02:32:28;;;;;;;19.93;11.07;;;7.70;99.90;;;;;;4933678;29;20218;-73
2021/12/15 02:37:22;;;;;;;20.63;10.77;;;7.60;99.90;;;;;;4929812;29;20213;-72
2021/12/15 02:39:59;;;;;;;18.63;10.67;;;7.50;99.90;;;;;;4935583;29;20206;-73
2021/12/15 02:42:30;;;;;;;19.10;10.50;;;7.50;99.90;;;;;;4934387;29;20371;-74
2021/12/15 02:44:57;;;;;;;20.73;10.87;;;7.50;99.90;;;;;;4933403;29;20209;-72
2021/12/15 02:47:29;;;;;;;21.73;11.73;;;7.40;99.90;;;;;;4911354;29;20199;-72
2021/12/15 02:49:58;;;;;;;18.87;10.73;;;7.50;99.90;;;;;;4934566;29;20311;-72
2021/12/15 02:52:26;;;;;;;18.80;10.50;;;7.60;99.90;;;;;;4927973;29;20526;-72
2021/12/15 02:54:53;;;;;;;17.87;10.87;;;7.40;99.90;;;;;;4929124;29;20267;-72
2021/12/15 02:57:20;;;;;;;21.87;11.00;;;7.40;99.90;;;;;;4935045;29;20194;-74
2021/12/15 03:05:21;;;;;;;23.23;12.30;;;7.30;99.90;;;;;;4924989;29;20223;-72
2021/12/15 03:16:14;;;;;;;21.50;11.53;;;7.40;99.90;;;;;;4930640;29;20208;-72
2021/12/15 03:18:41;;;;;;;21.70;11.40;;;7.50;99.90;;;;;;4934155;29;20299;-75
2021/12/15 03:21:12;;;;;;;25.43;12.83;;;7.50;99.90;;;;;;4933333;29;20219;-74
2021/12/15 03:23:50;;;;;;;21.83;11.63;;;7.50;99.90;;;;;;4934600;29;20224;-73
2021/12/15 03:26:30;;;;;;;21.63;11.83;;;7.50;99.90;;;;;;4934607;29;20200;-75
2021/12/15 03:39:28;;;;;;;21.50;11.63;;;7.60;99.90;;;;;;4929987;29;20200;-74
2021/12/15 03:42:00;;;;;;;22.60;12.03;;;7.50;99.90;;;;;;4930035;29;20263;-73
2021/12/15 03:44:29;;;;;;;24.60;11.80;;;7.50;99.90;;;;;;4926420;29;20229;-74
2021/12/15 03:46:57;;;;;;;25.67;12.27;;;7.40;99.90;;;;;;4929265;29;20211;-72
2021/12/15 03:49:24;;;;;;;22.50;11.60;;;7.50;99.90;;;;;;4932068;29;20228;-75
2021/12/15 03:51:51;;;;;;;21.47;12.07;;;7.50;99.90;;;;;;4905659;29;20722;-73
2021/12/15 03:54:18;;;;;;;22.33;11.67;;;7.40;99.90;;;;;;4925604;29;20216;-72
2021/12/15 03:56:46;;;;;;;24.17;12.03;;;7.40;99.90;;;;;;4926434;29;20208;-72
2021/12/15 03:59:13;;;;;;;19.97;11.90;;;7.30;99.90;;;;;;4917109;29;20208;-72
2021/12/15 04:01:39;;;;;;;21.20;11.23;;;7.30;99.90;;;;;;4923160;29;20228;-75
2021/12/15 04:04:07;;;;;;;23.10;12.23;;;7.30;99.90;;;;;;4922943;29;20588;-72
2021/12/15 04:06:38;;;;;;;23.57;12.50;;;7.10;99.90;;;;;;4925867;29;20204;-73
2021/12/15 04:09:10;;;;;;;26.77;12.13;;;7.30;99.90;;;;;;4933336;29;20668;-72
2021/12/15 04:11:38;;;;;;;27.60;12.57;;;7.30;99.90;;;;;;4931682;29;20229;-72
2021/12/15 04:14:09;;;;;;;24.60;12.70;;;7.30;99.90;;;;;;4926332;29;20217;-73
2021/12/15 04:16:44;;;;;;;22.23;11.97;;;7.30;99.90;;;;;;4911844;29;20282;-74
2021/12/15 04:19:14;;;;;;;22.60;11.70;;;7.30;99.90;;;;;;4933399;29;20428;-72
2021/12/15 04:21:42;;;;;;;23.57;11.83;;;7.20;99.90;;;;;;4933990;29;20220;-72
2021/12/15 04:24:12;;;;;;;25.83;12.80;;;7.30;99.90;;;;;;4926998;29;20227;-75
2021/12/15 04:26:39;;;;;;;23.33;11.83;;;7.30;99.90;;;;;;4931071;29;20220;-77
2021/12/15 04:29:06;;;;;;;25.77;13.20;;;7.30;99.90;;;;;;4924274;29;20667;-75
2021/12/15 04:31:37;;;;;;;23.20;12.37;;;7.40;99.90;;;;;;4929645;29;20212;-72
2021/12/15 04:34:07;;;;;;;24.10;13.00;;;7.40;99.90;;;;;;4921697;29;20240;-75
2021/12/15 04:36:43;;;;;;;20.27;11.73;;;7.50;99.90;;;;;;4930625;29;20207;-75
2021/12/15 04:39:13;;;;;;;23.17;12.03;;;7.50;99.90;;;;;;4916176;29;20205;-75
2021/12/15 04:41:46;;;;;;;22.43;12.03;;;7.50;99.90;;;;;;4912108;29;20218;-75
2021/12/15 04:44:15;;;;;;;21.47;11.40;;;7.50;99.90;;;;;;4931645;29;20226;-74
2021/12/15 04:46:58;;;;;;;20.97;11.13;;;7.40;99.90;;;;;;4930565;29;20585;-72
2021/12/15 04:49:27;;;;;;;21.27;11.47;;;7.40;99.90;;;;;;4925205;29;20201;-75
2021/12/15 04:51:53;;;;;;;24.80;12.07;;;7.50;99.90;;;;;;4912892;29;20219;-71
2021/12/15 04:54:20;;;;;;;20.23;10.63;;;7.50;99.90;;;;;;4932623;29;20573;-72
2021/12/15 04:56:47;;;;;;;21.30;11.67;;;7.50;99.90;;;;;;4929524;29;20217;-73
2021/12/15 04:59:15;;;;;;;22.70;12.20;;;7.40;99.90;;;;;;4932408;29;20279;-73
2021/12/15 05:01:42;;;;;;;24.40;12.33;;;7.40;99.90;;;;;;4913987;29;20237;-74
2021/12/15 05:04:09;;;;;;;21.53;11.87;;;7.50;99.90;;;;;;4915558;29;20219;-76
2021/12/15 05:06:36;;;;;;;23.53;11.77;;;7.60;99.90;;;;;;4927197;29;20202;-73
2021/12/15 05:09:05;;;;;;;23.37;11.60;;;7.70;99.90;;;;;;4930790;29;20789;-72
2021/12/15 05:11:32;;;;;;;23.97;12.10;;;7.50;99.90;;;;;;4923724;29;20225;-75
2021/12/15 05:13:59;;;;;;;21.13;11.80;;;7.60;99.90;;;;;;4929362;29;20334;-72
2021/12/15 05:16:26;;;;;;;25.20;11.57;;;7.60;99.90;;;;;;4930338;29;20202;-74
2021/12/15 05:18:53;;;;;;;20.80;11.73;;;7.50;99.90;;;;;;4929589;29;20242;-73
2021/12/15 05:21:22;;;;;;;24.43;12.13;;;7.50;99.90;;;;;;4933328;29;20719;-73
2021/12/15 05:23:55;;;;;;;23.20;12.63;;;7.50;99.90;;;;;;4933771;29;20225;-73
2021/12/15 05:26:22;;;;;;;22.43;12.17;;;7.50;99.90;;;;;;4936142;29;20580;-73
2021/12/15 05:28:51;;;;;;;23.33;12.53;;;7.60;99.90;;;;;;4935746;29;20194;-72
2021/12/15 05:31:18;;;;;;;19.80;11.47;;;7.60;99.90;;;;;;4930108;29;20225;-73
2021/12/15 05:33:45;;;;;;;21.13;11.87;;;7.60;99.90;;;;;;4926062;29;20292;-73
2021/12/15 05:36:12;;;;;;;23.80;12.10;;;7.50;99.90;;;;;;4935735;29;20201;-73
2021/12/15 05:38:39;;;;;;;22.87;12.43;;;7.50;99.90;;;;;;4930094;29;20733;-73
2021/12/15 05:41:06;;;;;;;19.07;11.53;;;7.50;99.90;;;;;;4925288;29;20236;-75
2021/12/15 05:43:32;;;;;;;18.37;10.73;;;7.50;99.90;;;;;;4925801;29;20237;-73
2021/12/15 05:45:59;;;;;;;24.03;11.73;;;7.50;99.90;;;;;;4928137;29;20206;-73
2021/12/15 05:48:26;;;;;;;27.23;13.57;;;7.60;99.90;;;;;;4931232;29;20199;-76
2021/12/15 05:50:54;;;;;;;28.47;13.77;;;7.60;99.90;;;;;;4923945;29;20197;-73
2021/12/15 05:53:22;;;;;;;26.40;12.73;;;7.50;99.90;;;;;;4929001;29;20287;-74
2021/12/15 05:55:50;;;;;;;31.07;15.53;;;7.40;99.90;;;;;;4913148;29;20207;-74
2021/12/15 05:58:17;;;;;;;33.20;15.87;;;7.50;99.90;;;;;;4930208;29;20205;-73
2021/12/15 06:00:46;;;;;;;40.83;17.57;;;7.60;99.90;;;;;;4927627;29;20661;-75
2021/12/15 06:03:14;;;;;;;34.47;16.10;;;7.60;99.90;;;;;;4913073;29;20200;-74
2021/12/15 06:05:42;;;;;;;27.67;14.00;;;7.50;99.90;;;;;;4932212;29;20198;-75
2021/12/15 06:08:09;;;;;;;29.13;13.60;;;7.60;99.90;;;;;;4927868;29;20889;-73
2021/12/15 06:10:36;;;;;;;33.77;13.77;;;7.50;99.90;;;;;;4928603;29;20201;-73
2021/12/15 06:13:06;;;;;;;28.83;13.03;;;7.40;99.90;;;;;;4927972;29;20196;-74
2021/12/15 06:15:33;;;;;;;37.80;13.30;;;7.30;99.90;;;;;;4926248;29;20210;-74
2021/12/15 06:18:14;;;;;;;26.73;13.47;;;7.30;99.90;;;;;;4924903;29;20216;-74
2021/12/15 06:20:41;;;;;;;25.30;11.97;;;7.50;99.90;;;;;;4922831;29;20206;-73
2021/12/15 06:23:16;;;;;;;22.77;12.27;;;7.40;99.90;;;;;;4929231;29;20214;-74
2021/12/15 06:25:44;;;;;;;29.00;12.60;;;7.40;99.90;;;;;;4930015;29;20241;-74
2021/12/15 06:28:11;;;;;;;26.87;13.83;;;7.50;99.90;;;;;;4926363;29;20193;-73
2021/12/15 06:30:39;;;;;;;30.70;12.83;;;7.60;99.90;;;;;;4909472;29;20289;-74
2021/12/15 06:33:06;;;;;;;24.37;13.00;;;7.60;99.90;;;;;;4926656;29;20909;-73
2021/12/15 06:35:34;;;;;;;26.90;12.80;;;7.60;99.90;;;;;;4925048;29;20216;-73
2021/12/15 06:38:18;;;;;;;28.20;12.90;;;7.70;99.90;;;;;;4927782;29;20206;-74
2021/12/15 06:41:15;;;;;;;29.03;13.43;;;7.80;99.90;;;;;;5036850;28;21012;-68
2021/12/15 06:43:46;;;;;;;25.33;12.87;;;7.80;99.90;;;;;;5037454;28;20224;-69
2021/12/15 06:59:45;;;;;;;24.60;12.37;;;7.60;99.90;;;;;;5016221;28;20214;-67
2021/12/15 07:02:14;;;;;;;23.47;12.07;;;7.60;99.90;;;;;;5042935;28;20205;-68
2021/12/15 07:04:41;;;;;;;25.30;12.07;;;7.70;99.90;;;;;;5034797;28;20212;-68
2021/12/15 07:07:07;;;;;;;23.97;12.20;;;7.70;99.90;;;;;;5033223;28;20835;-67
2021/12/15 07:09:34;;;;;;;29.00;12.77;;;7.60;99.90;;;;;;5040019;28;20209;-75
2021/12/15 07:12:04;;;;;;;26.83;13.40;;;7.70;99.90;;;;;;5046598;28;20397;-69
2021/12/15 07:14:32;;;;;;;23.77;12.83;;;7.80;99.90;;;;;;5033220;28;21097;-67
2021/12/15 07:16:59;;;;;;;23.90;12.47;;;7.90;99.90;;;;;;5040308;28;20203;-68
2021/12/15 07:22:28;;;;;;;25.93;12.63;;;7.90;99.90;;;;;;5046669;28;20210;-68
2021/12/15 07:24:53;;;;;;;25.57;12.70;;;7.80;99.90;;;;;;5036240;28;20218;-68
2021/12/15 07:27:20;;;;;;;24.00;12.80;;;7.80;99.90;;;;;;5040170;28;20208;-68
2021/12/15 07:29:47;;;;;;;25.27;13.70;;;7.80;99.90;;;;;;5043442;28;20883;-68
2021/12/15 07:32:14;;;;;;;24.53;12.87;;;7.70;99.90;;;;;;5038349;28;20209;-68
2021/12/15 07:34:40;;;;;;;29.17;13.07;;;7.80;99.90;;;;;;5041608;28;20725;-68
2021/12/15 07:37:07;;;;;;;27.57;14.00;;;7.90;99.90;;;;;;5046538;28;20214;-68
2021/12/15 07:39:36;;;;;;;27.40;13.60;;;7.80;99.90;;;;;;5041118;28;20251;-68
2021/12/15 07:42:10;;;;;;;30.67;13.10;;;7.70;99.90;;;;;;5045685;28;20201;-67
2021/12/15 07:44:38;;;;;;;30.13;14.03;;;7.70;99.90;;;;;;5037778;28;20219;-67
2021/12/15 07:47:06;;;;;;;27.40;13.00;;;7.70;99.90;;;;;;5040087;28;20211;-67
2021/12/15 07:49:33;;;;;;;28.57;13.37;;;7.90;99.90;;;;;;5035670;28;20210;-67
2021/12/15 07:52:03;;;;;;;26.60;13.10;;;7.70;99.90;;;;;;5020978;28;20241;-67
2021/12/15 07:54:33;;;;;;;23.97;13.27;;;7.70;99.90;;;;;;5022250;28;20234;-67
2021/12/15 07:57:04;;;;;;;23.10;12.50;;;7.80;99.90;;;;;;5018925;28;20312;-67
2021/12/15 07:59:31;;;;;;;25.70;13.43;;;8.00;99.90;;;;;;5026968;28;20233;-67
2021/12/15 08:01:58;;;;;;;26.73;13.03;;;7.90;99.90;;;;;;5017771;28;20436;-67
2021/12/15 08:04:25;;;;;;;26.40;13.70;;;8.00;99.90;;;;;;5027926;28;20277;-67
2021/12/15 08:06:51;;;;;;;28.80;13.57;;;8.10;99.90;;;;;;5021869;28;20204;-67
2021/12/15 08:09:20;;;;;;;24.10;13.03;;;8.10;99.90;;;;;;5019669;28;20203;-67
2021/12/15 08:11:47;;;;;;;25.00;13.60;;;8.20;99.90;;;;;;5015554;28;20201;-67
2021/12/15 08:14:15;;;;;;;24.53;12.37;;;8.10;99.90;;;;;;5024938;28;20230;-67
2021/12/15 08:16:42;;;;;;;26.70;12.60;;;8.20;99.90;;;;;;5022840;28;20309;-65
2021/12/15 08:19:09;;;;;;;24.10;12.77;;;8.20;99.90;;;;;;5021395;28;20199;-67
2021/12/15 08:21:37;;;;;;;23.60;12.77;;;8.30;99.90;;;;;;5019135;28;20212;-67
2021/12/15 08:24:04;;;;;;;27.07;13.27;;;8.30;99.90;;;;;;5024854;28;20237;-65
2021/12/15 08:26:31;;;;;;;33.33;13.47;;;8.30;99.90;;;;;;5030202;28;20265;-64
2021/12/15 08:28:58;;;;;;;28.50;12.73;;;8.40;99.90;;;;;;5027582;28;20660;-67
2021/12/15 08:31:24;;;;;;;26.57;13.00;;;8.40;99.90;;;;;;5022915;28;20195;-67
2021/12/15 08:33:51;;;;;;;24.40;13.07;;;8.40;99.90;;;;;;5030317;28;20241;-67
2021/12/15 08:36:19;;;;;;;23.47;12.20;;;8.40;99.90;;;;;;5021584;28;20198;-67
2021/12/15 08:38:48;;;;;;;24.97;13.07;;;8.40;99.90;;;;;;5026425;28;20207;-67
2021/12/15 08:41:22;;;;;;;23.87;11.73;;;8.30;99.90;;;;;;5023724;28;20229;-67
2021/12/15 08:43:49;;;;;;;23.93;13.10;;;8.40;99.90;;;;;;5022052;28;20218;-68
2021/12/15 08:46:20;;;;;;;25.07;13.13;;;8.50;99.90;;;;;;5024388;28;20220;-68
2021/12/15 08:48:48;;;;;;;22.73;12.07;;;8.40;99.90;;;;;;5024995;28;20265;-66
2021/12/15 08:51:18;;;;;;;22.27;12.47;;;8.40;99.90;;;;;;5024534;28;20198;-65
2021/12/15 08:53:45;;;;;;;24.30;13.03;;;8.40;99.90;;;;;;5033428;28;20220;-64
2021/12/15 08:56:12;;;;;;;26.37;11.73;;;8.60;99.90;;;;;;5028219;28;20203;-63
2021/12/15 08:58:39;;;;;;;22.37;11.87;;;8.70;99.90;;;;;;5022703;28;20206;-63
2021/12/15 09:01:09;;;;;;;21.20;11.73;;;8.70;99.90;;;;;;5022294;28;20614;-63
2021/12/15 09:03:38;;;;;;;21.00;11.33;;;8.70;99.90;;;;;;5021362;28;20218;-64
2021/12/15 09:06:05;;;;;;;23.33;11.87;;;8.60;99.90;;;;;;5023240;28;20202;-63
2021/12/15 09:08:32;;;;;;;20.27;11.83;;;8.60;99.90;;;;;;5023478;28;20214;-63
2021/12/15 09:11:03;;;;;;;20.57;11.00;;;8.60;99.90;;;;;;5023445;28;20221;-63
2021/12/15 09:13:30;;;;;;;24.17;12.03;;;8.50;99.90;;;;;;5025219;28;20317;-63
2021/12/15 09:16:06;;;;;;;20.40;11.17;;;8.50;99.90;;;;;;5021156;28;20203;-63
2021/12/15 09:18:34;;;;;;;22.13;11.57;;;8.70;99.90;;;;;;5021073;28;20218;-63
2021/12/15 09:21:01;;;;;;;24.37;11.60;;;8.70;99.90;;;;;;5017101;28;20227;-63
2021/12/15 09:23:28;;;;;;;22.50;12.40;;;8.70;99.90;;;;;;5022703;28;20210;-67
2021/12/15 09:25:55;;;;;;;21.30;11.63;;;8.70;99.90;;;;;;5026044;28;20206;-63
2021/12/15 09:28:24;;;;;;;24.83;12.77;;;8.70;99.90;;;;;;5024834;28;20214;-63
2021/12/15 09:30:52;;;;;;;25.53;12.77;;;8.80;99.90;;;;;;5023745;28;20210;-63
2021/12/15 09:33:26;;;;;;;22.13;11.97;;;8.90;99.90;;;;;;5022807;28;20223;-63
2021/12/15 09:35:53;;;;;;;26.30;13.03;;;9.00;99.90;;;;;;5017099;28;20700;-63
2021/12/15 09:38:21;;;;;;;21.03;12.00;;;9.10;99.90;;;;;;5018828;28;20226;-63
2021/12/15 09:40:53;;;;;;;25.17;12.90;;;9.10;99.90;;;;;;5023537;28;20219;-66
2021/12/15 09:43:20;;;;;;;21.70;12.43;;;9.20;99.90;;;;;;5016674;28;20218;-66
2021/12/15 09:45:53;;;;;;;22.90;12.40;;;9.40;99.90;;;;;;5016982;28;20602;-66
2021/12/15 10:04:57;;;;;;;22.17;11.47;;;9.80;99.90;;;;;;5021303;28;20238;-67
2021/12/15 10:18:32;;;;;;;22.00;11.03;;;10.00;99.90;;;;;;5022763;28;20298;-65
2021/12/15 10:21:00;;;;;;;19.30;10.53;;;10.00;99.90;;;;;;5021000;28;20228;-65
2021/12/15 10:23:40;;;;;;;16.87;10.67;;;10.00;99.90;;;;;;5031999;28;20769;-65
2021/12/15 10:26:07;;;;;;;23.30;12.50;;;10.10;99.90;;;;;;5030592;28;20807;-65
2021/12/15 10:28:35;;;;;;;20.43;11.60;;;10.20;99.90;;;;;;5031335;28;20191;-65
2021/12/15 10:31:15;;;;;;;19.53;11.13;;;10.30;99.90;;;;;;5022397;28;21663;-65
2021/12/15 10:33:50;;;;;;;19.63;11.50;;;10.50;99.90;;;;;;5019528;28;20215;-63
2021/12/15 10:36:24;;;;;;;22.87;10.87;;;10.50;99.90;;;;;;5017922;28;20248;-65
2021/12/15 10:38:58;;;;;;;21.80;11.43;;;10.70;99.90;;;;;;5023880;28;20780;-67
2021/12/15 10:41:32;;;;;;;22.07;10.77;;;10.70;99.90;;;;;;5025477;28;20571;-68
2021/12/15 10:44:11;;;;;;;22.90;11.50;;;10.80;99.90;;;;;;5019707;28;20223;-67
2021/12/15 10:46:49;;;;;;;21.40;11.63;;;10.90;99.90;;;;;;5022360;28;20630;-67
2021/12/15 10:49:24;;;;;;;20.27;11.30;;;11.00;99.90;;;;;;5022537;28;20334;-67
2021/12/15 10:51:53;;;;;;;18.97;10.93;;;11.10;99.90;;;;;;5009319;28;20202;-67
2021/12/15 10:54:30;;;;;;;25.53;10.90;;;11.20;99.90;;;;;;5015380;28;20586;-68
2021/12/15 10:56:57;;;;;;;19.70;10.37;;;11.20;99.90;;;;;;5014790;28;20230;-67
2021/12/15 10:59:26;;;;;;;20.47;11.13;;;11.20;99.90;;;;;;5016741;28;20481;-68
2021/12/15 11:02:05;;;;;;;19.80;10.80;;;11.40;99.90;;;;;;5021467;28;20386;-68
2021/12/15 11:04:40;;;;;;;20.13;11.27;;;11.20;99.90;;;;;;5021009;28;20222;-67
2021/12/15 11:07:12;;;;;;;18.63;10.60;;;11.20;99.90;;;;;;5020889;28;20225;-68
2021/12/15 11:09:57;;;;;;;21.23;10.67;;;11.20;99.90;;;;;;5024849;28;20229;-68
2021/12/15 11:12:29;;;;;;;19.63;10.60;;;11.10;99.90;;;;;;5021199;28;20199;-68
2021/12/15 11:15:00;;;;;;;19.13;11.60;;;11.00;99.90;;;;;;5026937;28;20226;-68
2021/12/15 11:17:40;;;;;;;21.80;11.60;;;10.80;99.90;;;;;;5023237;28;20209;-68
2021/12/15 11:20:23;;;;;;;20.13;10.80;;;11.00;99.90;;;;;;5018935;28;20210;-68
2021/12/15 11:22:57;;;;;;;22.97;12.20;;;11.20;99.90;;;;;;5024385;28;20214;-67
2021/12/15 11:25:27;;;;;;;20.17;11.30;;;11.40;99.90;;;;;;5023837;28;20201;-68
2021/12/15 11:28:22;;;;;;;22.27;11.30;;;11.50;99.90;;;;;;5021620;28;20216;-67
2021/12/15 11:31:06;;;;;;;18.40;11.13;;;11.60;99.90;;;;;;5019180;28;20195;-68
2021/12/15 11:33:41;;;;;;;21.23;12.17;;;11.50;99.90;;;;;;5019654;28;20362;-68
2021/12/15 11:36:11;;;;;;;19.97;10.90;;;11.50;99.90;;;;;;5023557;28;20221;-67
2021/12/15 11:38:50;;;;;;;18.77;10.90;;;11.50;99.90;;;;;;5022891;28;20289;-68
2021/12/15 11:41:23;;;;;;;19.80;11.10;;;11.40;99.90;;;;;;5013013;28;20235;-67
2021/12/15 11:43:53;;;;;;;18.90;10.63;;;11.40;99.90;;;;;;5024613;28;20597;-67
2021/12/15 11:46:29;;;;;;;21.00;10.83;;;11.60;99.90;;;;;;5020604;28;20975;-67
2021/12/15 11:48:58;;;;;;;17.83;10.87;;;11.70;99.90;;;;;;5016741;28;20195;-67
2021/12/15 11:51:46;;;;;;;18.67;11.03;;;11.80;99.90;;;;;;5013006;28;20622;-67
2021/12/15 11:54:21;;;;;;;19.97;10.73;;;11.80;99.90;;;;;;5026731;28;20233;-67
2021/12/15 11:56:57;;;;;;;19.20;10.67;;;11.80;99.90;;;;;;5020228;28;20283;-67
2021/12/15 11:59:32;;;;;;;17.47;10.90;;;11.70;99.90;;;;;;5024036;28;20214;-67
2021/12/15 12:02:03;;;;;;;18.03;10.47;;;11.40;99.90;;;;;;5010025;28;20230;-67
2021/12/15 12:04:40;;;;;;;19.83;11.20;;;11.40;99.90;;;;;;5009364;28;20701;-66
2021/12/15 12:07:15;;;;;;;20.17;10.67;;;11.50;99.90;;;;;;5014894;28;20193;-67
2021/12/15 12:09:45;;;;;;;22.27;11.63;;;11.50;99.90;;;;;;5005520;28;20198;-64
2021/12/15 12:12:15;;;;;;;20.37;11.27;;;11.60;99.90;;;;;;5013191;28;20212;-66
2021/12/15 12:14:49;;;;;;;18.90;11.60;;;11.60;99.90;;;;;;5020358;28;20224;-65
2021/12/15 12:17:20;;;;;;;19.27;11.60;;;11.50;99.90;;;;;;5010121;28;20225;-65
2021/12/15 12:19:59;;;;;;;21.70;11.10;;;11.30;99.90;;;;;;5015164;28;21928;-65
2021/12/15 12:22:30;;;;;;;19.97;11.17;;;11.20;99.90;;;;;;5020350;28;20233;-65
2021/12/15 12:25:00;;;;;;;19.93;11.73;;;11.40;99.90;;;;;;5014508;28;20254;-65
2021/12/15 12:27:30;;;;;;;18.87;11.53;;;11.40;99.90;;;;;;5012068;28;20203;-66
2021/12/15 12:30:00;;;;;;;21.47;12.17;;;11.00;99.90;;;;;;5010049;28;20316;-66
2021/12/15 12:32:27;;;;;;;21.27;11.90;;;11.20;99.90;;;;;;5013153;28;20245;-66
2021/12/15 12:34:54;;;;;;;21.20;11.53;;;11.30;99.90;;;;;;5016303;28;20238;-66
2021/12/15 12:37:21;;;;;;;22.87;11.60;;;11.20;99.90;;;;;;5016409;28;20598;-66
2021/12/15 12:39:55;;;;;;;21.70;12.00;;;11.20;99.90;;;;;;5014189;28;20207;-65
2021/12/15 12:42:33;;;;;;;19.60;11.60;;;11.40;99.90;;;;;;5011120;28;20230;-66
2021/12/15 12:45:26;;;;;;;22.77;12.57;;;11.30;99.90;;;;;;5011327;28;20219;-66
2021/12/15 12:48:26;;;;;;;22.27;12.17;;;11.40;99.90;;;;;;5015009;28;20202;-66
2021/12/15 12:59:44;;;;;;;21.27;11.23;;;11.60;99.90;;;;;;5016635;28;20224;-66
2021/12/15 13:02:50;;;;;;;21.73;11.77;;;11.50;99.90;;;;;;5018478;28;20241;-66
2021/12/15 13:05:28;;;;;;;19.17;11.30;;;11.50;99.90;;;;;;5016012;28;20662;-67
2021/12/15 13:07:58;;;;;;;19.63;11.33;;;11.50;99.90;;;;;;5011611;28;20227;-66
2021/12/15 13:10:47;;;;;;;20.60;11.70;;;11.60;99.90;;;;;;5017669;28;20197;-66
2021/12/15 13:13:17;;;;;;;19.80;11.40;;;11.70;99.90;;;;;;5014339;28;20711;-66
2021/12/15 13:15:54;;;;;;;23.03;11.40;;;11.70;99.90;;;;;;5016114;28;20228;-66
2021/12/15 13:18:21;;;;;;;22.63;11.93;;;11.80;99.90;;;;;;5016680;28;20435;-66
2021/12/15 13:20:58;;;;;;;24.23;11.47;;;11.50;99.90;;;;;;5014866;28;20510;-67
2021/12/15 13:23:48;;;;;;;22.73;11.07;;;11.20;99.90;;;;;;5025341;28;20221;-66
2021/12/15 13:29:48;;;;;;;19.83;11.70;;;11.10;99.90;;;;;;5014706;28;20280;-67
2021/12/15 13:32:15;;;;;;;19.23;10.87;;;11.20;99.90;;;;;;5022581;28;20222;-67
2021/12/15 13:34:49;;;;;;;19.23;11.37;;;11.30;99.90;;;;;;5023583;28;20615;-69
2021/12/15 13:37:53;;;;;;;18.73;10.97;;;11.40;99.90;;;;;;5020389;28;20211;-68
2021/12/15 13:40:53;;;;;;;22.07;11.37;;;11.40;99.90;;;;;;5021010;28;20275;-66
2021/12/15 13:43:44;;;;;;;21.90;11.83;;;11.30;99.90;;;;;;5009413;28;20769;-66
2021/12/15 13:46:40;;;;;;;19.50;11.63;;;11.30;99.90;;;;;;5021646;28;20209;-66
2021/12/15 13:49:29;;;;;;;22.10;11.63;;;11.30;99.90;;;;;;5021089;28;20732;-67
2021/12/15 13:51:59;;;;;;;22.23;12.20;;;11.20;99.90;;;;;;5016923;28;20197;-66
2021/12/15 13:54:32;;;;;;;21.77;10.70;;;11.20;99.90;;;;;;5021164;28;20227;-68
2021/12/15 13:57:13;;;;;;;23.67;11.63;;;11.20;99.90;;;;;;5014843;28;20875;-68
2021/12/15 13:59:44;;;;;;;23.17;11.17;;;11.20;99.90;;;;;;5021180;28;20644;-66
2021/12/15 14:02:18;;;;;;;20.73;10.67;;;11.00;99.90;;;;;;5012476;28;20549;-66
2021/12/15 14:04:53;;;;;;;21.47;11.37;;;11.00;99.90;;;;;;5011620;28;20714;-66
2021/12/15 14:07:35;;;;;;;18.10;10.90;;;11.10;99.90;;;;;;5018204;28;20206;-66
2021/12/15 14:10:12;;;;;;;20.83;11.27;;;10.80;99.90;;;;;;5018826;28;20282;-66
2021/12/15 14:12:45;;;;;;;18.73;10.27;;;10.80;99.90;;;;;;5017789;28;20211;-66
2021/12/15 14:15:34;;;;;;;21.20;11.37;;;10.80;99.90;;;;;;5021088;28;20202;-66
2021/12/15 14:18:01;;;;;;;20.40;11.07;;;10.90;99.90;;;;;;5015443;28;20209;-66
2021/12/15 14:20:29;;;;;;;18.27;10.80;;;10.90;99.90;;;;;;5025859;28;20214;-67
2021/12/15 14:22:58;;;;;;;20.33;11.07;;;10.90;99.90;;;;;;5015239;28;20245;-66
2021/12/15 14:25:26;;;;;;;22.03;10.97;;;10.90;99.90;;;;;;5026184;28;20213;-66
2021/12/15 14:27:54;;;;;;;21.13;11.73;;;10.90;99.90;;;;;;5021826;28;20214;-66
2021/12/15 14:30:21;;;;;;;21.80;11.10;;;10.90;99.90;;;;;;5017589;28;20215;-66